createdAt,value
2023-05-05T00:00:30.228Z,20.42
2023-05-05T00:03:35.551Z,20.37
2023-05-05T00:06:38.864Z,20.40
2023-05-05T00:09:42.020Z,20.43
2023-05-05T00:12:45.241Z,20.41
2023-05-05T00:15:51.927Z,20.35
2023-05-05T00:18:54.988Z,20.39
2023-05-05T00:21:58.031Z,20.39
2023-05-05T00:25:01.192Z,20.37
2023-05-05T00:28:04.348Z,20.39
2023-05-05T00:31:08.981Z,20.39
2023-05-05T00:34:12.114Z,20.30
2023-05-05T00:37:15.257Z,20.32
2023-05-05T00:40:18.752Z,20.33
2023-05-05T00:43:21.861Z,20.35
2023-05-05T00:46:28.498Z,20.37
2023-05-05T00:49:32.037Z,20.37
2023-05-05T00:52:36.022Z,20.27
2023-05-05T00:55:39.197Z,20.31
2023-05-05T00:58:43.695Z,20.34
2023-05-05T01:01:48.489Z,20.33
2023-05-05T01:04:51.774Z,20.28
2023-05-05T01:08:07.267Z,20.30
2023-05-05T01:11:19.054Z,20.30
2023-05-05T01:14:29.498Z,20.31
2023-05-05T01:17:39.968Z,20.31
2023-05-05T01:20:49.451Z,20.30
2023-05-05T01:24:33.723Z,20.22
2023-05-05T01:27:51.261Z,20.25
2023-05-05T01:31:22.869Z,20.25
2023-05-05T01:34:33.499Z,20.19
2023-05-05T01:37:42.366Z,20.24
2023-05-05T01:40:50.252Z,20.24
2023-05-05T01:43:55.544Z,20.18
2023-05-05T01:47:00.843Z,20.22
2023-05-05T01:50:08.244Z,20.24
2023-05-05T01:53:12.831Z,20.21
2023-05-05T01:56:17.199Z,20.24
2023-05-05T01:59:22.149Z,20.13
2023-05-05T02:02:29.386Z,20.21
2023-05-05T02:05:34.327Z,20.21
2023-05-05T02:08:39.907Z,20.21
2023-05-05T02:11:43.359Z,20.20
2023-05-05T02:14:47.849Z,20.21
2023-05-05T02:17:53.246Z,20.22
2023-05-05T02:20:57.725Z,20.22
2023-05-05T02:24:01.226Z,20.19
2023-05-05T02:27:07.533Z,20.21
2023-05-05T02:30:13.012Z,20.22
2023-05-05T02:33:20.481Z,20.20
2023-05-05T02:36:29.340Z,20.18
2023-05-05T02:39:36.661Z,20.17
2023-05-05T02:42:42.662Z,20.22
2023-05-05T02:45:45.732Z,20.17
2023-05-05T02:48:49.049Z,20.16
2023-05-05T02:51:53.646Z,20.18
2023-05-05T02:54:56.786Z,20.15
2023-05-05T02:58:06.734Z,20.16
2023-05-05T03:01:19.969Z,20.18
2023-05-05T03:04:27.751Z,20.19
2023-05-05T03:07:39.543Z,20.18
2023-05-05T03:10:48.593Z,20.15
2023-05-05T03:13:57.254Z,20.10
2023-05-05T03:17:02.569Z,20.16
2023-05-05T03:20:08.290Z,20.16
2023-05-05T03:23:14.652Z,20.16
2023-05-05T03:26:18.901Z,20.19
2023-05-05T03:29:22.041Z,20.20
2023-05-05T03:32:25.584Z,20.22
2023-05-05T03:35:28.789Z,20.26
2023-05-05T03:38:33.265Z,20.21
2023-05-05T03:41:36.338Z,20.19
2023-05-05T03:44:39.309Z,20.20
2023-05-05T03:47:42.422Z,20.22
2023-05-05T03:50:46.296Z,20.17
2023-05-05T03:53:50.728Z,20.18
2023-05-05T03:56:53.724Z,20.14
2023-05-05T03:59:56.720Z,20.20
2023-05-05T04:02:59.950Z,20.21
2023-05-05T04:06:03.287Z,20.21
2023-05-05T04:09:07.727Z,20.33
2023-05-05T04:12:10.863Z,20.28
2023-05-05T04:15:14.037Z,20.38
2023-05-05T04:18:17.098Z,20.24
2023-05-05T04:21:20.162Z,20.31
2023-05-05T04:24:26.007Z,20.17
2023-05-05T04:27:30.419Z,19.75
2023-05-05T04:30:33.555Z,19.70
2023-05-05T04:33:36.883Z,19.71
2023-05-05T04:36:39.951Z,19.69
2023-05-05T04:39:44.471Z,19.71
2023-05-05T04:42:47.439Z,19.63
2023-05-05T04:45:54.013Z,19.59
2023-05-05T04:48:57.085Z,19.56
2023-05-05T04:52:00.612Z,19.57
2023-05-05T04:55:05.540Z,19.47
2023-05-05T04:58:08.692Z,19.51
2023-05-05T05:01:11.812Z,19.52
2023-05-05T05:04:18.579Z,19.51
2023-05-05T05:07:21.771Z,19.47
2023-05-05T05:10:26.173Z,19.42
2023-05-05T05:13:29.122Z,19.40
2023-05-05T05:16:32.163Z,19.37
2023-05-05T05:19:35.479Z,19.39
2023-05-05T05:22:39.052Z,19.45
2023-05-05T05:25:43.811Z,19.39
2023-05-05T05:28:46.901Z,19.36
2023-05-05T05:31:50.304Z,19.33
2023-05-05T05:34:53.429Z,19.27
2023-05-05T05:37:56.430Z,19.36
2023-05-05T05:41:01.212Z,19.38
2023-05-05T05:44:04.207Z,19.33
2023-05-05T05:47:07.353Z,19.37
2023-05-05T05:50:11.052Z,19.36
2023-05-05T05:53:14.270Z,19.37
2023-05-05T05:56:18.725Z,19.39
2023-05-05T05:59:21.877Z,19.41
2023-05-05T06:02:26.548Z,19.40
2023-05-05T06:05:30.095Z,19.35
2023-05-05T06:08:33.303Z,19.36
2023-05-05T06:11:37.839Z,19.38
2023-05-05T06:14:41.273Z,19.60
2023-05-05T06:17:44.437Z,19.69
2023-05-05T06:20:50.787Z,19.70
2023-05-05T06:23:53.977Z,19.75
2023-05-05T06:26:59.366Z,19.78
2023-05-05T06:30:02.359Z,19.67
2023-05-05T06:33:05.625Z,19.62
2023-05-05T06:36:11.253Z,19.55
2023-05-05T06:39:16.054Z,19.76
2023-05-05T06:42:20.824Z,19.91
2023-05-05T06:45:23.909Z,19.87
2023-05-05T06:48:27.052Z,19.98
2023-05-05T06:51:30.239Z,19.99
2023-05-05T06:54:33.429Z,20.02
2023-05-05T06:57:37.919Z,20.00
2023-05-05T07:00:41.535Z,20.05
2023-05-05T07:03:44.810Z,20.09
2023-05-05T07:06:48.000Z,20.06
2023-05-05T07:09:51.174Z,20.09
2023-05-05T07:12:56.061Z,20.07
2023-05-05T07:15:59.121Z,20.13
2023-05-05T07:19:05.794Z,20.13
2023-05-05T07:22:08.950Z,20.07
2023-05-05T07:25:12.065Z,19.94
2023-05-05T07:28:16.795Z,19.85
2023-05-05T07:31:22.073Z,19.84
2023-05-05T07:34:25.563Z,19.79
2023-05-05T07:37:28.690Z,19.82
2023-05-05T07:40:32.130Z,19.80
2023-05-05T07:43:39.268Z,19.74
2023-05-05T07:46:42.898Z,19.78
2023-05-05T07:49:45.957Z,19.83
2023-05-05T07:52:54.021Z,19.82
2023-05-05T07:56:05.453Z,19.85
2023-05-05T07:59:09.925Z,19.89
2023-05-05T08:02:13.945Z,19.98
2023-05-05T08:05:17.519Z,20.08
2023-05-05T08:08:24.943Z,20.17
2023-05-05T08:11:29.651Z,20.25
2023-05-05T08:14:34.453Z,20.32
2023-05-05T08:17:48.812Z,20.39
2023-05-05T08:20:52.946Z,20.48
2023-05-05T08:23:56.056Z,20.49
2023-05-05T08:26:59.293Z,20.61
2023-05-05T08:30:04.523Z,20.62
2023-05-05T08:33:07.632Z,20.72
2023-05-05T08:36:11.655Z,20.77
2023-05-05T08:39:14.773Z,20.74
2023-05-05T08:42:32.758Z,20.82
2023-05-05T08:45:42.042Z,20.86
2023-05-05T08:48:46.450Z,20.92
2023-05-05T08:51:52.176Z,21.00
2023-05-05T08:54:58.702Z,21.01
2023-05-05T08:58:03.462Z,21.06
2023-05-05T09:01:09.247Z,21.03
2023-05-05T09:04:12.540Z,21.02
2023-05-05T09:07:15.740Z,21.06
2023-05-05T09:10:19.587Z,21.09
2023-05-05T09:13:22.781Z,21.09
2023-05-05T09:16:27.317Z,21.03
2023-05-05T09:19:30.494Z,20.96
2023-05-05T09:25:40.535Z,20.87
2023-05-05T09:28:53.589Z,20.86
2023-05-05T09:32:09.058Z,20.87
2023-05-05T09:35:12.447Z,20.93
2023-05-05T09:38:15.493Z,20.92
2023-05-05T09:41:37.926Z,20.94
2023-05-05T09:44:41.369Z,20.99
2023-05-05T09:47:46.875Z,20.95
2023-05-05T09:50:50.188Z,20.98
2023-05-05T09:53:53.534Z,20.97
2023-05-05T09:56:57.456Z,21.00
2023-05-05T10:00:01.801Z,20.99
2023-05-05T10:03:06.798Z,20.98
2023-05-05T10:06:10.015Z,20.78
2023-05-05T10:09:13.058Z,20.92
2023-05-05T10:12:16.357Z,20.91
2023-05-05T10:15:20.094Z,20.92
2023-05-05T10:18:25.860Z,20.93
2023-05-05T10:21:34.653Z,20.93
2023-05-05T10:24:40.898Z,20.93
2023-05-05T10:30:53.449Z,20.94
2023-05-05T10:34:04.626Z,20.92
2023-05-05T10:37:08.515Z,20.88
2023-05-05T10:40:12.168Z,20.87
2023-05-05T10:43:15.605Z,20.87
2023-05-05T10:46:19.353Z,20.84
2023-05-05T10:49:34.582Z,20.82
2023-05-05T10:52:43.192Z,20.80
2023-05-05T10:55:55.330Z,20.78
2023-05-05T10:59:00.806Z,20.78
2023-05-05T11:02:19.990Z,20.74
2023-05-05T11:05:24.736Z,20.74
2023-05-05T11:08:28.228Z,20.76
2023-05-05T11:12:04.564Z,20.75
2023-05-05T11:15:38.036Z,20.76
2023-05-05T11:18:44.492Z,20.73
2023-05-05T11:22:03.111Z,20.67
2023-05-05T11:25:41.147Z,20.70
2023-05-05T11:29:04.767Z,20.66
2023-05-05T11:32:15.745Z,20.65
2023-05-05T11:35:19.088Z,20.66
2023-05-05T11:38:27.488Z,20.61
2023-05-05T11:42:13.767Z,20.66
2023-05-05T11:45:24.220Z,20.60
2023-05-05T11:48:27.698Z,20.65
2023-05-05T11:51:31.045Z,20.61
2023-05-05T11:54:36.378Z,20.60
2023-05-05T11:57:39.598Z,20.61
2023-05-05T12:00:42.779Z,20.60
2023-05-05T12:03:46.374Z,20.59
2023-05-05T12:06:50.215Z,20.57
2023-05-05T12:09:55.135Z,20.57
2023-05-05T12:12:58.280Z,20.54
2023-05-05T12:16:10.122Z,20.55
2023-05-05T12:19:14.498Z,20.52
2023-05-05T12:22:22.403Z,20.52
2023-05-05T12:25:27.049Z,20.71
2023-05-05T12:28:44.754Z,20.76
2023-05-05T12:31:47.992Z,20.77
2023-05-05T12:34:54.484Z,20.77
2023-05-05T12:37:58.448Z,20.76
2023-05-05T12:45:28.379Z,20.68
2023-05-05T12:48:31.964Z,20.67
2023-05-05T12:51:36.605Z,20.61
2023-05-05T12:54:54.839Z,20.57
2023-05-05T12:58:02.234Z,20.55
2023-05-05T13:01:12.966Z,20.52
2023-05-05T13:04:16.606Z,20.55
2023-05-05T13:07:21.340Z,20.54
2023-05-05T13:10:25.382Z,20.48
2023-05-05T13:13:28.596Z,20.47
2023-05-05T13:16:34.004Z,20.50
2023-05-05T13:19:42.050Z,20.51
2023-05-05T13:22:45.906Z,20.42
2023-05-05T13:25:49.041Z,20.50
2023-05-05T13:28:52.223Z,20.48
2023-05-05T13:31:56.683Z,20.41
2023-05-05T13:34:59.803Z,20.48
2023-05-05T13:38:03.023Z,20.46
2023-05-05T13:41:06.330Z,20.42
2023-05-05T13:44:09.430Z,20.45
2023-05-05T13:47:14.130Z,20.47
2023-05-05T13:50:18.410Z,20.67
2023-05-05T13:53:21.802Z,20.74
2023-05-05T13:56:26.371Z,20.84
2023-05-05T13:59:30.088Z,20.69
2023-05-05T14:02:34.634Z,20.90
2023-05-05T14:05:42.614Z,20.90
2023-05-05T14:08:46.291Z,20.83
2023-05-05T14:11:49.522Z,20.91
2023-05-05T14:14:52.818Z,20.96
2023-05-05T14:17:58.119Z,20.94
2023-05-05T14:21:01.390Z,20.99
2023-05-05T14:24:04.701Z,20.99
2023-05-05T14:27:08.125Z,20.99
2023-05-05T14:30:12.119Z,21.01
2023-05-05T14:33:17.073Z,21.01
2023-05-05T14:36:20.957Z,21.03
2023-05-05T14:39:24.033Z,20.82
2023-05-05T14:42:27.329Z,20.51
2023-05-05T14:45:30.767Z,20.37
2023-05-05T14:48:36.088Z,20.18
2023-05-05T14:51:39.151Z,20.20
2023-05-05T14:54:42.308Z,20.24
2023-05-05T14:57:45.417Z,20.13
2023-05-05T15:00:48.483Z,20.39
2023-05-05T15:03:54.020Z,20.65
2023-05-05T15:06:57.184Z,20.80
2023-05-05T15:10:00.412Z,20.92
2023-05-05T15:13:03.535Z,20.92
2023-05-05T15:16:07.481Z,20.92
2023-05-05T15:19:11.993Z,20.82
2023-05-05T15:22:15.156Z,20.82
2023-05-05T15:25:19.365Z,20.82
2023-05-05T15:28:22.439Z,20.83
2023-05-05T15:31:25.559Z,20.91
2023-05-05T15:34:30.011Z,20.97
2023-05-05T15:37:33.226Z,21.03
2023-05-05T15:40:40.583Z,21.05
2023-05-05T15:43:43.674Z,21.00
2023-05-05T15:46:48.337Z,20.95
2023-05-05T15:49:55.043Z,20.92
2023-05-05T15:52:59.124Z,20.91
2023-05-05T15:56:02.890Z,20.90
2023-05-05T15:59:05.965Z,20.87
2023-05-05T16:02:09.195Z,20.84
2023-05-05T16:05:14.547Z,20.83
2023-05-05T16:08:17.546Z,20.81
2023-05-05T16:11:22.462Z,20.79
2023-05-05T16:14:25.726Z,20.76
2023-05-05T16:17:29.124Z,20.73
2023-05-05T16:20:34.007Z,20.73
2023-05-05T16:23:37.076Z,20.75
2023-05-05T16:26:40.118Z,20.76
2023-05-05T16:29:43.149Z,20.72
2023-05-05T16:32:47.534Z,20.74
2023-05-05T16:35:51.989Z,20.71
2023-05-05T16:38:55.528Z,20.68
2023-05-05T16:41:58.728Z,20.68
2023-05-05T16:45:01.820Z,20.65
2023-05-05T16:48:08.220Z,20.67
2023-05-05T16:51:13.624Z,20.66
2023-05-05T16:54:16.774Z,20.59
2023-05-05T16:57:19.862Z,20.63
2023-05-05T17:00:22.918Z,20.62
2023-05-05T17:03:26.499Z,20.76
2023-05-05T17:06:33.245Z,20.84
2023-05-05T17:09:36.285Z,20.91
2023-05-05T17:12:39.790Z,20.89
2023-05-05T17:15:44.306Z,20.88
2023-05-05T17:18:47.829Z,20.85
2023-05-05T17:21:52.422Z,20.85
2023-05-05T17:24:55.486Z,20.82
2023-05-05T17:27:58.700Z,20.82
2023-05-05T17:31:02.141Z,20.80
2023-05-05T17:34:05.165Z,20.75
2023-05-05T17:37:10.492Z,20.77
2023-05-05T17:40:13.845Z,20.72
2023-05-05T17:43:17.080Z,20.73
2023-05-05T17:46:20.310Z,20.75
2023-05-05T17:49:25.356Z,20.75
2023-05-05T17:52:29.949Z,20.68
2023-05-05T17:55:33.026Z,20.73
2023-05-05T17:58:36.066Z,20.74
2023-05-05T18:01:39.111Z,20.74
2023-05-05T18:04:42.543Z,20.59
2023-05-05T18:07:47.053Z,21.07
2023-05-05T18:10:50.092Z,22.08
2023-05-05T18:13:53.227Z,22.84
2023-05-05T18:16:56.391Z,23.36
2023-05-05T18:19:59.471Z,23.67
2023-05-05T18:23:03.929Z,23.99
2023-05-05T18:26:07.313Z,24.12
2023-05-05T18:29:10.694Z,24.28
2023-05-05T18:32:13.867Z,24.34
2023-05-05T18:35:17.315Z,24.44
2023-05-05T18:38:21.799Z,24.44
2023-05-05T18:41:24.847Z,24.52
2023-05-05T18:44:28.019Z,23.72
2023-05-05T18:47:31.209Z,23.18
2023-05-05T18:50:34.362Z,22.80
2023-05-05T18:53:38.895Z,22.50
2023-05-05T18:56:42.957Z,22.28
2023-05-05T18:59:46.094Z,22.17
2023-05-05T19:02:49.199Z,22.00
2023-05-05T19:05:52.379Z,21.99
2023-05-05T19:08:57.361Z,21.90
2023-05-05T19:12:00.496Z,21.89
2023-05-05T19:15:03.612Z,21.90
2023-05-05T19:18:06.913Z,21.92
2023-05-05T19:21:10.019Z,21.91
2023-05-05T19:24:14.600Z,21.84
2023-05-05T19:27:17.898Z,21.81
2023-05-05T19:30:21.089Z,21.75
2023-05-05T19:33:24.574Z,21.72
2023-05-05T19:36:27.825Z,21.59
2023-05-05T19:39:32.621Z,21.66
2023-05-05T19:42:35.844Z,21.64
2023-05-05T19:45:39.071Z,21.61
2023-05-05T19:48:42.227Z,21.62
2023-05-05T19:51:47.635Z,21.59
2023-05-05T19:54:52.173Z,21.58
2023-05-05T19:57:55.255Z,21.58
2023-05-05T20:00:58.382Z,21.55
2023-05-05T20:04:01.517Z,21.54
2023-05-05T20:07:05.050Z,21.55
2023-05-05T20:10:13.312Z,21.52
2023-05-05T20:13:16.834Z,21.47
2023-05-05T20:16:20.164Z,21.49
2023-05-05T20:19:23.329Z,21.46
2023-05-05T20:22:27.142Z,21.45
2023-05-05T20:25:32.020Z,21.44
2023-05-05T20:28:35.315Z,21.44
2023-05-05T20:31:38.582Z,21.41
2023-05-05T20:34:41.607Z,21.41
2023-05-05T20:37:45.839Z,21.34
2023-05-05T20:40:50.698Z,21.38
2023-05-05T20:43:53.818Z,21.37
2023-05-05T20:46:56.947Z,21.38
2023-05-05T20:50:00.082Z,21.38
2023-05-05T20:53:03.235Z,21.38
2023-05-05T20:56:09.090Z,21.38
2023-05-05T20:59:12.419Z,21.37
2023-05-05T21:02:15.459Z,21.37
2023-05-05T21:05:18.645Z,21.38
2023-05-05T21:08:21.824Z,21.36
2023-05-05T21:11:26.333Z,21.36
2023-05-05T21:14:29.451Z,21.32
2023-05-05T21:17:32.523Z,21.33
2023-05-05T21:20:36.374Z,21.29
2023-05-05T21:23:39.487Z,21.26
2023-05-05T21:26:45.400Z,21.10
2023-05-05T21:29:52.178Z,21.20
2023-05-05T21:32:55.231Z,21.17
2023-05-05T21:35:58.305Z,21.13
2023-05-05T21:39:02.129Z,21.14
2023-05-05T21:42:06.721Z,21.12
2023-05-05T21:45:11.660Z,21.12
2023-05-05T21:48:14.908Z,21.11
2023-05-05T21:51:18.046Z,21.09
2023-05-05T21:54:21.066Z,21.06
2023-05-05T21:57:25.517Z,21.06
2023-05-05T22:00:28.606Z,21.05
2023-05-05T22:03:31.798Z,21.05
2023-05-05T22:06:35.584Z,21.03
2023-05-05T22:09:38.625Z,21.02
2023-05-05T22:12:43.162Z,21.02
2023-05-05T22:15:47.427Z,21.00
2023-05-05T22:18:51.526Z,20.98
2023-05-05T22:21:55.080Z,20.96
2023-05-05T22:24:58.110Z,20.99
2023-05-05T22:28:02.646Z,20.91
2023-05-05T22:34:09.189Z,20.92
2023-05-05T22:37:12.320Z,20.93
2023-05-05T22:40:15.397Z,20.88
2023-05-05T22:43:20.164Z,20.93
2023-05-05T22:46:23.323Z,20.87
2023-05-05T22:49:26.565Z,20.93
2023-05-05T22:52:29.540Z,20.93
2023-05-05T22:55:32.635Z,20.92
2023-05-05T22:58:37.105Z,20.92
2023-05-05T23:01:40.245Z,20.91
2023-05-05T23:04:44.892Z,20.88
2023-05-05T23:07:48.131Z,20.90
2023-05-05T23:10:51.254Z,20.87
2023-05-05T23:13:55.764Z,20.86
2023-05-05T23:16:59.325Z,20.85
2023-05-05T23:20:02.753Z,20.86
2023-05-05T23:23:05.909Z,20.85
2023-05-05T23:26:09.037Z,20.87
2023-05-05T23:29:13.500Z,20.86
2023-05-05T23:32:16.618Z,20.88
2023-05-05T23:35:19.788Z,20.87
2023-05-05T23:38:22.803Z,20.87
2023-05-05T23:41:25.860Z,20.86
2023-05-05T23:44:31.102Z,20.86
2023-05-05T23:47:34.272Z,20.86
2023-05-05T23:50:37.418Z,20.85
2023-05-05T23:53:40.497Z,20.83
2023-05-05T23:56:43.676Z,20.84
2023-05-05T23:59:48.115Z,20.83
